Terminal Aerodrome Forecast
Issued by NWS

Home | Current Version | Previous Version | Text Only | Print | Product List | Glossary On
Versions: 1 2 3 4 5 6 7 8 9 10 11 12 13 14 15 16 17 18 19 20 21
105
FTUS44 KTSA 181503 AAB
TAFBVO
TAF AMD
KBVO 181503Z 1815/1912 20008KT P6SM SKC
     FM181600 18010KT P6SM SCT040 SCT250
     FM190300 18004KT P6SM SCT050 BKN250 PROB30 1903/1909 3SM -TSRA
      BKN025CB=

USA.gov is the U.S. government's official web portal to all federal, state and local government web resources and services.